Time;durP1;ratioP1;P1;durP2;ratioP2;P2;SDS_P1;SDS_P2;PMS_P1;PMS_P2;Temp;Humidity;BMP_temperature;BMP_pressure;BME280_temperature;BME280_humidity;BME280_pressure;Samples;Min_cycle;Max_cycle;Signal;HPM_P1;HPM_P2
2022/05/07 00:00:22;;;;;;;2.97;2.35;;;13.80;75.00;;;;;;4955127;28;20034;-76
2022/05/07 00:02:51;;;;;;;2.58;2.22;;;13.80;75.00;;;;;;4952521;28;20046;-76
2022/05/07 00:05:18;;;;;;;2.17;1.98;;;13.70;74.70;;;;;;4952988;28;20112;-76
2022/05/07 00:07:44;;;;;;;3.30;2.30;;;13.70;74.90;;;;;;4949352;28;20053;-76
2022/05/07 00:10:09;;;;;;;4.00;2.17;;;13.70;74.80;;;;;;4947890;28;20781;-77
2022/05/07 00:12:35;;;;;;;2.78;1.90;;;13.70;75.00;;;;;;4954618;28;20034;-76
2022/05/07 00:15:01;;;;;;;3.35;2.40;;;13.70;75.40;;;;;;4949173;28;20411;-70
2022/05/07 00:20:11;;;;;;;3.88;1.90;;;13.80;75.50;;;;;;4951467;28;20122;-75
2022/05/07 00:22:37;;;;;;;4.78;2.15;;;13.90;75.40;;;;;;4951512;28;20134;-75
2022/05/07 00:25:03;;;;;;;3.75;2.28;;;13.90;75.40;;;;;;4952098;28;20122;-75
2022/05/07 00:27:29;;;;;;;2.78;2.40;;;13.90;75.70;;;;;;4952454;28;20034;-75
2022/05/07 00:29:55;;;;;;;3.42;2.70;;;13.90;76.10;;;;;;4947961;28;20118;-75
2022/05/07 00:32:21;;;;;;;4.07;2.55;;;14.00;76.20;;;;;;4941322;28;20129;-75
2022/05/07 00:34:47;;;;;;;6.22;2.85;;;14.10;76.10;;;;;;4939788;28;20022;-75
2022/05/07 00:37:13;;;;;;;3.95;2.55;;;14.10;75.80;;;;;;4953320;28;20961;-75
2022/05/07 00:39:38;;;;;;;5.90;2.70;;;14.20;75.70;;;;;;4954095;28;20038;-75
2022/05/07 00:42:06;;;;;;;2.83;2.53;;;14.20;75.80;;;;;;4951504;28;20159;-75
2022/05/07 00:44:33;;;;;;;3.88;2.58;;;14.30;76.00;;;;;;4951747;28;20031;-75
2022/05/07 00:47:26;;;;;;;2.97;2.60;;;14.30;76.10;;;;;;4939529;28;20036;-75
2022/05/07 00:49:56;;;;;;;3.42;2.63;;;14.40;76.10;;;;;;4942792;28;20054;-75
2022/05/07 00:52:23;;;;;;;3.28;2.53;;;14.40;75.80;;;;;;4953556;28;20503;-73
2022/05/07 00:54:49;;;;;;;3.45;2.70;;;14.40;75.60;;;;;;4956489;28;20027;-75
2022/05/07 00:57:16;;;;;;;3.47;2.55;;;14.50;76.00;;;;;;4955845;28;20034;-75
2022/05/07 00:59:42;;;;;;;5.20;2.90;;;14.50;76.00;;;;;;4942078;28;20026;-75
2022/05/07 01:02:09;;;;;;;3.15;2.63;;;14.50;75.90;;;;;;4937213;28;20114;-76
2022/05/07 01:04:36;;;;;;;4.68;2.60;;;14.50;76.00;;;;;;4939638;28;20038;-75
2022/05/07 01:07:02;;;;;;;5.00;2.95;;;14.50;75.60;;;;;;4954208;28;20042;-75
2022/05/07 01:09:30;;;;;;;2.83;2.40;;;14.50;75.50;;;;;;4952201;28;20080;-75
2022/05/07 01:11:56;;;;;;;6.07;2.70;;;14.50;75.60;;;;;;4954214;28;20133;-75
2022/05/07 01:14:22;;;;;;;5.07;2.83;;;14.50;75.40;;;;;;4941120;28;20672;-75
2022/05/07 01:16:48;;;;;;;2.65;2.10;;;14.50;75.70;;;;;;4957101;28;20058;-75
2022/05/07 01:19:14;;;;;;;2.80;2.60;;;14.40;76.80;;;;;;4938919;28;20027;-76
2022/05/07 01:21:41;;;;;;;2.80;2.55;;;14.40;76.40;;;;;;4941427;28;20038;-75
2022/05/07 01:24:07;;;;;;;3.25;2.33;;;14.40;76.90;;;;;;4955200;28;20034;-76
2022/05/07 01:26:36;;;;;;;3.42;2.53;;;14.40;76.80;;;;;;4953935;28;20030;-76
2022/05/07 01:29:07;;;;;;;3.42;2.55;;;14.40;76.40;;;;;;4939584;28;20090;-76
2022/05/07 01:31:37;;;;;;;4.82;2.53;;;14.40;76.70;;;;;;4956988;28;20035;-76
2022/05/07 01:34:03;;;;;;;4.60;2.97;;;14.30;76.80;;;;;;4946323;28;20388;-76
2022/05/07 01:36:31;;;;;;;3.95;2.63;;;14.30;76.80;;;;;;4957138;28;20042;-76
2022/05/07 01:39:02;;;;;;;3.83;2.83;;;14.30;77.20;;;;;;4937420;28;20039;-76
2022/05/07 01:41:28;;;;;;;3.85;2.50;;;14.30;77.80;;;;;;4953459;28;20035;-76
2022/05/07 01:43:54;;;;;;;3.75;2.78;;;14.30;77.10;;;;;;4933340;28;20027;-76
2022/05/07 01:49:08;;;;;;;5.63;2.50;;;14.30;76.40;;;;;;4934931;28;20484;-76
2022/05/07 01:51:34;;;;;;;2.72;2.45;;;14.30;76.60;;;;;;4940595;28;20023;-76
2022/05/07 01:54:01;;;;;;;2.88;2.55;;;14.30;76.20;;;;;;4946078;28;20041;-75
2022/05/07 01:56:27;;;;;;;4.53;2.60;;;14.30;75.70;;;;;;4938873;28;20027;-76
2022/05/07 01:58:53;;;;;;;3.30;2.53;;;14.40;75.40;;;;;;4933990;28;20071;-75
2022/05/07 02:01:20;;;;;;;2.80;2.30;;;14.30;75.20;;;;;;4948121;28;20118;-75
2022/05/07 02:03:46;;;;;;;3.92;2.50;;;14.30;75.00;;;;;;4950280;28;20748;-76
2022/05/07 02:06:15;;;;;;;2.92;2.65;;;14.30;75.20;;;;;;4942783;28;20034;-75
2022/05/07 02:08:41;;;;;;;3.85;2.47;;;14.30;75.20;;;;;;4960341;28;20373;-75
2022/05/07 02:11:14;;;;;;;6.28;2.65;;;14.30;75.30;;;;;;4939023;28;20035;-75
2022/05/07 02:13:39;;;;;;;2.60;1.98;;;14.30;75.20;;;;;;4939231;28;20072;-76
2022/05/07 02:16:05;;;;;;;4.82;2.53;;;14.30;75.30;;;;;;4936496;28;20475;-75
2022/05/07 02:18:32;;;;;;;2.28;2.08;;;14.30;75.50;;;;;;4946632;28;20105;-76
2022/05/07 02:20:58;;;;;;;4.30;2.60;;;14.20;75.90;;;;;;4938244;28;20138;-75
2022/05/07 02:23:24;;;;;;;3.30;2.70;;;14.20;76.00;;;;;;4960099;28;20039;-75
2022/05/07 02:25:49;;;;;;;4.38;2.33;;;14.10;76.10;;;;;;4940862;28;20047;-76
2022/05/07 02:28:17;;;;;;;3.80;2.63;;;14.10;76.10;;;;;;4946695;28;20027;-76
2022/05/07 02:30:43;;;;;;;3.55;2.97;;;14.10;76.20;;;;;;4939720;28;20031;-76
2022/05/07 02:33:09;;;;;;;3.85;2.85;;;14.20;76.30;;;;;;4960710;28;20058;-76
2022/05/07 02:35:37;;;;;;;5.05;3.03;;;14.10;76.40;;;;;;4957699;28;20034;-76
2022/05/07 02:38:03;;;;;;;5.13;2.85;;;14.10;76.50;;;;;;4942710;28;20513;-75
2022/05/07 02:40:30;;;;;;;5.60;2.95;;;14.00;75.90;;;;;;4944853;28;20031;-75
2022/05/07 02:42:58;;;;;;;3.92;2.88;;;14.00;75.20;;;;;;4958510;28;20141;-75
2022/05/07 02:45:23;;;;;;;2.58;2.38;;;14.00;74.80;;;;;;4947151;28;20037;-75
2022/05/07 02:47:55;;;;;;;4.18;2.70;;;14.00;74.50;;;;;;4952544;28;20031;-75
2022/05/07 02:50:22;;;;;;;3.92;2.67;;;14.00;74.40;;;;;;4941489;28;20031;-75
2022/05/07 02:52:48;;;;;;;3.95;2.72;;;14.00;74.20;;;;;;4958187;28;20101;-75
2022/05/07 02:55:14;;;;;;;4.55;2.78;;;14.10;74.40;;;;;;4943400;28;20130;-76
2022/05/07 02:57:45;;;;;;;3.42;2.53;;;14.10;74.40;;;;;;4958381;28;20461;-76
2022/05/07 03:00:12;;;;;;;4.82;2.88;;;14.10;74.60;;;;;;4942741;28;20095;-76
2022/05/07 03:02:38;;;;;;;3.08;2.50;;;14.10;74.50;;;;;;4938829;28;20027;-75
2022/05/07 03:05:05;;;;;;;3.92;2.60;;;14.10;74.70;;;;;;4946249;28;20039;-75
2022/05/07 03:07:31;;;;;;;3.85;2.80;;;14.10;74.80;;;;;;4962020;28;20031;-75
2022/05/07 03:10:00;;;;;;;3.45;2.67;;;14.10;74.90;;;;;;4940562;28;20093;-76
2022/05/07 03:12:28;;;;;;;3.08;2.50;;;14.10;74.80;;;;;;4950033;28;20059;-75
2022/05/07 03:14:53;;;;;;;4.07;2.72;;;14.10;74.80;;;;;;4955499;28;20086;-75
2022/05/07 03:17:19;;;;;;;3.50;2.63;;;14.10;75.00;;;;;;4958666;28;20070;-76
2022/05/07 03:19:45;;;;;;;3.75;2.58;;;14.10;74.80;;;;;;4953935;28;20092;-75
2022/05/07 03:22:12;;;;;;;2.75;2.50;;;14.10;74.60;;;;;;4935968;28;20038;-75
2022/05/07 03:24:38;;;;;;;2.92;2.67;;;14.00;74.70;;;;;;4942813;28;20023;-76
2022/05/07 03:27:05;;;;;;;3.60;2.65;;;14.00;74.60;;;;;;4945801;28;20058;-75
2022/05/07 03:29:33;;;;;;;3.28;2.60;;;14.00;74.80;;;;;;4936876;28;20029;-75
2022/05/07 03:32:09;;;;;;;2.83;2.15;;;13.90;75.00;;;;;;4934035;28;20035;-76
2022/05/07 03:34:36;;;;;;;2.90;2.42;;;13.80;75.20;;;;;;4950944;28;20037;-75
2022/05/07 03:37:03;;;;;;;3.80;2.78;;;13.80;75.80;;;;;;4932814;28;20092;-75
2022/05/07 03:39:30;;;;;;;4.63;2.80;;;13.70;75.80;;;;;;4953594;28;20210;-75
2022/05/07 03:41:57;;;;;;;2.75;2.50;;;13.60;75.80;;;;;;4954918;28;20040;-75
2022/05/07 03:44:22;;;;;;;5.47;2.85;;;13.60;76.00;;;;;;4942158;28;20041;-75
2022/05/07 03:46:52;;;;;;;3.03;2.72;;;13.50;76.50;;;;;;4949894;28;20078;-75
2022/05/07 03:49:19;;;;;;;4.88;2.58;;;13.40;76.80;;;;;;4944083;28;20783;-75
2022/05/07 03:54:32;;;;;;;3.80;3.10;;;13.20;78.20;;;;;;4936217;28;20399;-75
2022/05/07 03:56:58;;;;;;;5.68;3.10;;;13.20;78.90;;;;;;4944900;28;20035;-76
2022/05/07 03:59:29;;;;;;;6.30;4.25;;;13.20;79.20;;;;;;4957241;28;20035;-76
2022/05/07 04:01:54;;;;;;;7.45;4.90;;;13.10;79.20;;;;;;4942174;28;20034;-75
2022/05/07 04:04:28;;;;;;;5.10;4.07;;;13.10;79.30;;;;;;4940384;28;20042;-75
2022/05/07 04:07:02;;;;;;;7.47;4.30;;;13.10;79.40;;;;;;4937657;28;20534;-76
2022/05/07 04:09:28;;;;;;;6.03;3.90;;;13.10;79.80;;;;;;4940043;28;20027;-75
2022/05/07 04:11:55;;;;;;;4.35;3.42;;;13.10;80.30;;;;;;4942538;28;20035;-76
2022/05/07 04:14:20;;;;;;;5.95;3.15;;;13.10;80.20;;;;;;4943990;28;20656;-75
2022/05/07 04:16:49;;;;;;;4.78;3.13;;;13.10;80.00;;;;;;4957628;28;20022;-76
2022/05/07 04:19:16;;;;;;;3.83;3.17;;;13.10;80.10;;;;;;4955000;28;20030;-75
2022/05/07 04:21:43;;;;;;;4.35;3.20;;;13.10;80.10;;;;;;4940707;28;20402;-75
2022/05/07 04:24:26;;;;;;;3.88;3.00;;;13.10;79.70;;;;;;4942518;28;20122;-75
2022/05/07 04:26:55;;;;;;;4.70;3.28;;;13.20;79.70;;;;;;4942000;28;20144;-76
2022/05/07 04:29:21;;;;;;;6.13;3.28;;;13.20;80.00;;;;;;4942159;28;20030;-75
2022/05/07 04:31:58;;;;;;;6.10;3.20;;;13.20;80.20;;;;;;4948786;28;20034;-76
2022/05/07 04:34:26;;;;;;;3.85;3.15;;;13.20;79.70;;;;;;4935992;28;20034;-75
2022/05/07 04:36:52;;;;;;;5.00;3.25;;;13.20;79.50;;;;;;4952433;28;20042;-76
2022/05/07 04:39:18;;;;;;;3.65;3.15;;;13.30;79.10;;;;;;4942313;28;20035;-76
2022/05/07 04:41:55;;;;;;;4.22;3.05;;;13.30;79.10;;;;;;4943170;28;20030;-76
2022/05/07 04:44:28;;;;;;;6.15;3.28;;;13.40;79.00;;;;;;4942988;28;20015;-76
2022/05/07 04:46:54;;;;;;;3.13;2.80;;;13.50;78.30;;;;;;4941953;28;20170;-75
2022/05/07 04:49:21;;;;;;;4.57;3.03;;;13.50;78.00;;;;;;4937062;28;20125;-76
2022/05/07 04:51:50;;;;;;;5.70;3.38;;;13.60;77.80;;;;;;4948239;28;20070;-76
2022/05/07 04:54:20;;;;;;;4.00;3.30;;;13.70;77.70;;;;;;4944652;28;20042;-76
2022/05/07 04:56:50;;;;;;;3.05;2.75;;;13.80;77.70;;;;;;4950091;28;20063;-75
2022/05/07 04:59:18;;;;;;;3.60;2.53;;;13.90;77.10;;;;;;4944590;28;20043;-76
2022/05/07 05:01:49;;;;;;;5.75;2.80;;;14.00;76.50;;;;;;4945864;28;20466;-76
2022/05/07 05:04:18;;;;;;;4.18;2.72;;;14.10;76.20;;;;;;4948366;28;20435;-76
2022/05/07 05:06:45;;;;;;;6.28;3.08;;;14.20;76.00;;;;;;4940772;28;20626;-76
2022/05/07 05:09:15;;;;;;;5.38;3.00;;;14.50;75.30;;;;;;4955598;28;20040;-76
2022/05/07 05:11:51;;;;;;;3.22;2.80;;;14.80;74.20;;;;;;4955430;28;20035;-76
2022/05/07 05:17:03;;;;;;;4.53;2.72;;;16.40;70.10;;;;;;4945208;28;20090;-76
2022/05/07 05:19:29;;;;;;;2.85;2.40;;;17.10;67.50;;;;;;4945632;28;20122;-76
2022/05/07 05:21:59;;;;;;;3.28;2.70;;;17.70;64.90;;;;;;4943659;28;20028;-75
2022/05/07 05:24:30;;;;;;;4.88;2.78;;;18.40;63.10;;;;;;4949212;28;20026;-77
2022/05/07 05:26:55;;;;;;;3.58;2.50;;;18.80;61.80;;;;;;4941747;28;20027;-76
2022/05/07 05:29:27;;;;;;;24.25;4.30;;;19.40;60.70;;;;;;4962480;28;20935;-78
2022/05/07 05:31:53;;;;;;;3.30;2.78;;;20.20;58.80;;;;;;4945626;28;20070;-76
2022/05/07 05:34:28;;;;;;;3.88;2.97;;;20.80;58.50;;;;;;4943059;28;20031;-73
2022/05/07 05:36:55;;;;;;;4.60;2.70;;;21.70;55.80;;;;;;4945614;28;20109;-76
2022/05/07 05:39:24;;;;;;;7.95;2.70;;;22.70;53.70;;;;;;4962321;28;20027;-75
2022/05/07 05:41:52;;;;;;;4.60;2.92;;;24.00;51.20;;;;;;4946921;28;20058;-75
2022/05/07 05:44:19;;;;;;;4.68;2.90;;;25.00;48.10;;;;;;4949052;28;20026;-75
2022/05/07 05:46:44;;;;;;;3.78;2.60;;;25.70;46.00;;;;;;4942772;28;20077;-75
2022/05/07 05:49:11;;;;;;;5.50;2.22;;;26.10;45.00;;;;;;4945742;28;20027;-74
2022/05/07 05:51:39;;;;;;;2.47;2.28;;;25.70;45.50;;;;;;4945476;28;20038;-75
2022/05/07 05:54:05;;;;;;;2.42;2.15;;;25.40;45.30;;;;;;4947775;28;20034;-75
2022/05/07 05:56:31;;;;;;;3.92;2.60;;;25.20;45.90;;;;;;4961523;28;20031;-74
2022/05/07 05:58:59;;;;;;;3.97;2.63;;;24.90;45.00;;;;;;4948113;28;20598;-71
2022/05/07 06:01:29;;;;;;;3.80;2.65;;;24.80;46.30;;;;;;4958593;28;20126;-75
2022/05/07 06:04:10;;;;;;;3.58;2.10;;;24.90;47.10;;;;;;4948026;28;20078;-75
2022/05/07 06:06:36;;;;;;;4.00;2.03;;;25.50;46.40;;;;;;4954797;28;20023;-75
2022/05/07 06:09:02;;;;;;;2.67;2.03;;;25.80;46.30;;;;;;4950546;28;20038;-75
2022/05/07 06:11:28;;;;;;;3.20;2.47;;;26.40;44.30;;;;;;4957524;28;20742;-75
2022/05/07 06:13:54;;;;;;;4.60;2.10;;;26.70;41.00;;;;;;4952296;28;20745;-75
2022/05/07 06:16:20;;;;;;;3.80;2.35;;;26.00;41.80;;;;;;4952607;28;20463;-74
2022/05/07 06:18:46;;;;;;;4.60;2.08;;;25.10;42.20;;;;;;4941199;28;20023;-77
2022/05/07 06:21:12;;;;;;;2.72;2.15;;;24.40;43.40;;;;;;4947884;28;20031;-75
2022/05/07 06:23:41;;;;;;;2.55;1.90;;;24.40;43.40;;;;;;4939421;28;20034;-75
2022/05/07 06:28:54;;;;;;;5.47;2.85;;;24.50;43.70;;;;;;4943850;28;20039;-75
2022/05/07 06:31:20;;;;;;;4.55;1.85;;;24.00;44.40;;;;;;4946599;28;20031;-78
2022/05/07 06:33:47;;;;;;;3.45;1.80;;;23.40;44.70;;;;;;4946472;28;20035;-73
2022/05/07 06:36:13;;;;;;;1.70;1.60;;;22.90;46.40;;;;;;4953747;28;20047;-73
2022/05/07 06:38:40;;;;;;;4.35;1.90;;;23.60;46.30;;;;;;4958856;28;20030;-74
2022/05/07 06:41:09;;;;;;;4.75;3.00;;;25.20;43.10;;;;;;4938227;28;20050;-74
2022/05/07 06:43:46;;;;;;;5.63;3.08;;;25.70;40.10;;;;;;4935867;28;20027;-74
2022/05/07 06:46:21;;;;;;;11.10;3.70;;;25.30;40.60;;;;;;4952991;28;20038;-74
2022/05/07 06:48:58;;;;;;;8.57;4.00;;;24.60;42.00;;;;;;4960971;28;20030;-74
2022/05/07 06:51:29;;;;;;;5.35;3.33;;;23.80;43.70;;;;;;4940181;28;20030;-74
2022/05/07 06:53:54;;;;;;;3.80;1.95;;;23.50;44.50;;;;;;4957622;28;20353;-74
2022/05/07 06:56:21;;;;;;;4.68;2.25;;;23.30;44.60;;;;;;4937400;28;20023;-74
2022/05/07 06:58:47;;;;;;;7.68;2.53;;;23.10;45.10;;;;;;4954204;28;20042;-74
2022/05/07 07:01:15;;;;;;;11.38;2.10;;;22.80;44.60;;;;;;4960009;28;20037;-70
2022/05/07 07:03:41;;;;;;;4.30;1.73;;;22.60;44.50;;;;;;4957720;28;20031;-69
2022/05/07 07:06:07;;;;;;;1.98;1.77;;;22.30;45.40;;;;;;4961410;28;20066;-73
2022/05/07 07:08:33;;;;;;;5.38;1.88;;;22.30;46.30;;;;;;4958422;28;20038;-70
2022/05/07 07:10:59;;;;;;;2.63;1.88;;;22.30;46.00;;;;;;4959150;28;20031;-73
2022/05/07 07:13:25;;;;;;;3.60;2.00;;;22.20;46.70;;;;;;4959261;28;20078;-73
2022/05/07 07:15:51;;;;;;;3.55;1.55;;;22.20;47.20;;;;;;4958854;28;20058;-73
2022/05/07 07:18:17;;;;;;;3.50;2.05;;;22.40;46.80;;;;;;4957953;28;20101;-73
2022/05/07 07:20:44;;;;;;;3.38;2.00;;;22.70;46.70;;;;;;4958068;28;20039;-72
2022/05/07 07:23:11;;;;;;;4.43;3.08;;;22.90;46.30;;;;;;4956599;28;20027;-73
2022/05/07 07:25:41;;;;;;;4.80;2.67;;;22.90;45.70;;;;;;4958716;28;20132;-73
2022/05/07 07:28:07;;;;;;;5.25;2.83;;;23.10;45.10;;;;;;4958391;28;20550;-73
2022/05/07 07:30:33;;;;;;;5.55;2.25;;;23.30;45.30;;;;;;4960561;28;20035;-73
2022/05/07 07:33:00;;;;;;;3.10;1.98;;;23.80;45.20;;;;;;4932780;28;20471;-73
2022/05/07 07:35:26;;;;;;;2.28;1.98;;;24.20;43.80;;;;;;4957320;28;20718;-73
2022/05/07 07:37:52;;;;;;;2.78;2.15;;;24.50;42.90;;;;;;4955394;28;20041;-70
2022/05/07 07:40:18;;;;;;;5.10;1.80;;;25.00;42.80;;;;;;4957057;28;20026;-74
2022/05/07 07:42:44;;;;;;;2.45;2.20;;;25.20;41.40;;;;;;4956801;28;20041;-74
2022/05/07 07:48:03;;;;;;;4.75;2.45;;;25.70;42.00;;;;;;4952155;28;20085;-73
2022/05/07 07:50:34;;;;;;;3.80;2.72;;;25.80;40.80;;;;;;4961059;28;20034;-74
2022/05/07 07:53:01;;;;;;;5.55;2.60;;;25.50;40.70;;;;;;4955424;28;20051;-73
2022/05/07 07:55:28;;;;;;;7.50;2.88;;;25.10;41.00;;;;;;4961991;28;20380;-72
2022/05/07 07:57:59;;;;;;;3.90;2.75;;;24.80;41.20;;;;;;4951876;28;20694;-75
2022/05/07 08:00:26;;;;;;;4.85;3.00;;;24.90;42.10;;;;;;4939478;28;20578;-73
2022/05/07 08:03:00;;;;;;;15.55;3.90;;;25.40;41.00;;;;;;4951093;28;20071;-71
2022/05/07 08:05:28;;;;;;;9.18;3.67;;;26.00;40.20;;;;;;4960153;28;20039;-70
2022/05/07 08:13:24;;;;;;;11.65;4.47;;;26.50;38.70;;;;;;4950688;28;20027;-68
2022/05/07 08:15:50;;;;;;;12.00;4.55;;;26.90;38.10;;;;;;4958336;28;20507;-75
2022/05/07 08:18:16;;;;;;;10.70;4.60;;;27.00;37.50;;;;;;4949721;28;20066;-69
2022/05/07 08:20:43;;;;;;;13.27;4.97;;;26.90;38.20;;;;;;4952588;28;20062;-75
2022/05/07 08:23:10;;;;;;;5.55;3.65;;;26.90;37.70;;;;;;4958719;28;20041;-74
2022/05/07 08:25:36;;;;;;;13.90;4.60;;;27.00;38.00;;;;;;4953453;28;20034;-75
2022/05/07 08:28:03;;;;;;;12.10;4.47;;;27.00;37.50;;;;;;4955758;28;20042;-75
2022/05/07 08:30:29;;;;;;;7.68;4.10;;;26.50;37.60;;;;;;4959572;28;20039;-76
2022/05/07 08:32:55;;;;;;;8.90;4.22;;;26.50;38.50;;;;;;4953538;28;20551;-75
2022/05/07 08:35:21;;;;;;;11.48;4.80;;;27.20;37.70;;;;;;4960265;28;20034;-77
2022/05/07 08:37:47;;;;;;;13.27;4.50;;;27.80;36.60;;;;;;4958228;28;20031;-76
2022/05/07 08:40:16;;;;;;;10.63;5.05;;;27.70;36.90;;;;;;4960081;28;20513;-76
2022/05/07 08:42:43;;;;;;;9.30;4.22;;;27.40;36.20;;;;;;4958951;28;20053;-74
2022/05/07 08:45:12;;;;;;;7.03;3.47;;;27.10;36.10;;;;;;4958773;28;20479;-76
2022/05/07 08:47:38;;;;;;;10.95;3.90;;;26.90;36.80;;;;;;4956293;28;20037;-75
2022/05/07 08:50:07;;;;;;;9.50;3.88;;;26.70;37.20;;;;;;4953560;28;20067;-75
2022/05/07 08:52:34;;;;;;;10.48;4.45;;;26.60;37.40;;;;;;4955332;28;20046;-75
2022/05/07 08:55:01;;;;;;;10.43;4.72;;;26.50;38.20;;;;;;4956759;28;20446;-75
2022/05/07 08:57:29;;;;;;;9.20;4.18;;;26.20;37.90;;;;;;4956323;28;20039;-75
2022/05/07 08:59:55;;;;;;;9.77;4.32;;;26.00;38.40;;;;;;4951599;28;20049;-76
2022/05/07 09:02:21;;;;;;;9.75;4.25;;;26.00;39.00;;;;;;4957050;28;20031;-75
2022/05/07 09:04:57;;;;;;;9.32;4.07;;;25.90;38.80;;;;;;4959125;28;20109;-76
2022/05/07 09:07:23;;;;;;;8.25;3.50;;;26.60;38.40;;;;;;4960752;28;20043;-78
2022/05/07 09:09:51;;;;;;;9.48;4.20;;;27.30;38.20;;;;;;4957227;28;20093;-77
2022/05/07 09:12:29;;;;;;;8.65;4.07;;;27.50;37.90;;;;;;4956624;28;20111;-72
2022/05/07 09:15:00;;;;;;;9.85;4.38;;;27.00;36.90;;;;;;4955342;28;20054;-76
2022/05/07 09:17:26;;;;;;;8.20;4.68;;;27.20;37.30;;;;;;4949601;28;20122;-77
2022/05/07 09:19:51;;;;;;;10.27;4.45;;;27.70;36.60;;;;;;4957938;28;20035;-76
2022/05/07 09:22:17;;;;;;;10.20;4.15;;;28.00;36.00;;;;;;4956793;28;20680;-76
2022/05/07 09:24:53;;;;;;;9.57;4.82;;;28.00;36.70;;;;;;4959673;28;20042;-65
2022/05/07 09:27:19;;;;;;;8.52;4.00;;;27.90;36.90;;;;;;4958723;28;20214;-68
2022/05/07 09:29:45;;;;;;;11.57;4.70;;;28.20;35.80;;;;;;4954847;28;20125;-68
2022/05/07 09:32:15;;;;;;;9.43;4.70;;;28.50;35.60;;;;;;4947226;28;20050;-67
2022/05/07 09:37:39;;;;;;;12.43;4.40;;;27.80;36.20;;;;;;4948742;28;20030;-67
2022/05/07 09:40:12;;;;;;;5.97;3.75;;;27.90;36.20;;;;;;4950765;28;20042;-67
2022/05/07 09:42:39;;;;;;;8.30;4.78;;;27.90;36.30;;;;;;4953846;28;20077;-68
2022/05/07 09:45:06;;;;;;;12.43;5.43;;;28.00;35.60;;;;;;4955060;28;20051;-68
2022/05/07 09:47:33;;;;;;;8.68;5.07;;;28.10;35.70;;;;;;4955138;28;20030;-68
2022/05/07 09:58:18;;;;;;;7.55;3.45;;;28.30;34.70;;;;;;4960700;28;20073;-67
2022/05/07 10:00:53;;;;;;;8.98;3.97;;;28.40;35.40;;;;;;4956658;28;20038;-67
2022/05/07 10:03:26;;;;;;;6.03;3.33;;;28.80;34.50;;;;;;4952317;28;20041;-67
2022/05/07 10:06:07;;;;;;;10.20;3.63;;;29.00;34.70;;;;;;4957185;28;20761;-67
2022/05/07 10:09:02;;;;;;;7.53;4.47;;;29.30;33.60;;;;;;4956629;28;20073;-67
2022/05/07 10:11:28;;;;;;;7.50;3.70;;;29.10;33.40;;;;;;4951425;28;20031;-67
2022/05/07 10:13:55;;;;;;;9.07;3.85;;;28.90;33.90;;;;;;4959037;28;20041;-67
2022/05/07 10:16:23;;;;;;;7.57;4.95;;;29.00;34.50;;;;;;4959175;28;20103;-67
2022/05/07 10:18:49;;;;;;;10.60;7.03;;;29.60;34.40;;;;;;4958029;28;20023;-67
2022/05/07 10:21:19;;;;;;;7.15;3.97;;;29.60;33.70;;;;;;4959105;28;20788;-68
2022/05/07 10:23:56;;;;;;;10.68;4.78;;;30.30;33.70;;;;;;4954352;28;20042;-69
2022/05/07 10:26:36;;;;;;;9.43;4.32;;;30.70;33.20;;;;;;4959824;28;20045;-68
2022/05/07 10:29:03;;;;;;;5.55;3.47;;;30.80;32.00;;;;;;4956653;28;20040;-69
2022/05/07 10:31:29;;;;;;;6.50;3.95;;;30.30;32.90;;;;;;4957867;28;20764;-68
2022/05/07 10:33:55;;;;;;;6.50;3.88;;;29.40;33.00;;;;;;4954915;28;20042;-68
2022/05/07 10:36:21;;;;;;;6.53;4.13;;;29.00;34.20;;;;;;4953935;28;20081;-68
2022/05/07 10:38:49;;;;;;;6.43;4.28;;;28.80;35.10;;;;;;4956193;28;20121;-68
2022/05/07 10:41:15;;;;;;;8.43;4.13;;;28.80;35.40;;;;;;4958408;28;20138;-69
2022/05/07 10:43:43;;;;;;;9.18;4.53;;;28.70;35.10;;;;;;4959399;28;20027;-65
2022/05/07 10:46:14;;;;;;;6.43;3.83;;;28.60;35.70;;;;;;4959249;28;20031;-68
2022/05/07 10:48:45;;;;;;;8.10;3.80;;;28.80;34.30;;;;;;4938056;28;20390;-68
2022/05/07 10:51:18;;;;;;;8.52;4.90;;;28.50;34.50;;;;;;4956529;28;20042;-68
2022/05/07 10:53:43;;;;;;;7.45;4.03;;;28.70;35.10;;;;;;4952518;28;20065;-68
2022/05/07 10:56:17;;;;;;;6.15;3.60;;;29.10;34.10;;;;;;4952924;28;20235;-68
2022/05/07 10:58:50;;;;;;;7.10;3.45;;;29.20;34.10;;;;;;4958827;28;20054;-65
2022/05/07 11:01:18;;;;;;;10.20;5.95;;;28.50;34.70;;;;;;4956734;28;20066;-68
2022/05/07 11:03:45;;;;;;;30.27;15.55;;;27.80;36.40;;;;;;4942708;28;20122;-68
2022/05/07 11:06:12;;;;;;;14.63;7.05;;;27.00;36.90;;;;;;4952779;28;20039;-67
2022/05/07 11:08:52;;;;;;;6.93;4.53;;;26.60;38.10;;;;;;4957012;28;20566;-72
2022/05/07 11:11:18;;;;;;;6.60;3.83;;;26.30;38.90;;;;;;4953530;28;20035;-69
2022/05/07 11:13:53;;;;;;;7.78;4.78;;;26.00;39.30;;;;;;4951857;28;20067;-69
2022/05/07 11:16:20;;;;;;;8.55;4.65;;;25.70;40.20;;;;;;4958558;28;20034;-69
2022/05/07 11:18:53;;;;;;;11.50;5.78;;;25.50;40.40;;;;;;4955203;28;20871;-70
2022/05/07 11:21:20;;;;;;;6.80;3.35;;;25.50;40.60;;;;;;4953282;28;20061;-69
2022/05/07 11:23:57;;;;;;;7.75;4.03;;;25.70;40.50;;;;;;4940560;28;20174;-69
2022/05/07 11:26:24;;;;;;;5.53;3.30;;;25.50;39.90;;;;;;4952210;28;20138;-69
2022/05/07 11:28:51;;;;;;;7.55;4.07;;;25.30;40.60;;;;;;4946310;28;20026;-69
2022/05/07 11:31:32;;;;;;;4.95;3.38;;;25.20;40.90;;;;;;4946581;28;20063;-69
2022/05/07 11:34:11;;;;;;;3.88;3.03;;;25.20;40.60;;;;;;4958780;28;20043;-69
2022/05/07 11:36:38;;;;;;;6.78;3.28;;;25.50;40.90;;;;;;4933443;28;20037;-69
2022/05/07 11:39:09;;;;;;;7.13;3.92;;;25.90;41.00;;;;;;4951660;28;20102;-69
2022/05/07 11:41:35;;;;;;;6.82;3.78;;;26.10;40.30;;;;;;4948702;28;20119;-69
2022/05/07 11:46:53;;;;;;;4.78;3.10;;;25.60;40.90;;;;;;4949616;28;20895;-68
2022/05/07 11:49:30;;;;;;;8.70;3.63;;;25.40;41.30;;;;;;4956038;28;20030;-69
2022/05/07 11:52:12;;;;;;;6.78;3.03;;;25.50;41.10;;;;;;4954138;28;20502;-68
2022/05/07 11:54:51;;;;;;;4.80;3.40;;;25.60;40.80;;;;;;4956934;28;20023;-69
2022/05/07 11:57:35;;;;;;;9.80;3.10;;;25.40;40.60;;;;;;4951694;28;20460;-69
2022/05/07 12:00:15;;;;;;;6.07;2.90;;;25.60;40.90;;;;;;4950873;28;20035;-70
2022/05/07 12:03:10;;;;;;;6.10;3.22;;;25.80;40.70;;;;;;4952422;28;20030;-67
2022/05/07 12:05:43;;;;;;;5.07;3.22;;;25.90;40.50;;;;;;4958743;28;20125;-67
2022/05/07 12:08:22;;;;;;;5.90;3.05;;;25.80;40.60;;;;;;4957756;28;20158;-67
2022/05/07 12:10:50;;;;;;;4.18;2.75;;;25.80;40.90;;;;;;4952965;28;20038;-67
2022/05/07 12:13:18;;;;;;;6.78;3.00;;;25.90;40.10;;;;;;4955662;28;20038;-68
2022/05/07 12:18:31;;;;;;;5.15;3.53;;;26.20;40.50;;;;;;4954928;28;20035;-68
2022/05/07 12:20:58;;;;;;;5.05;3.67;;;26.20;39.80;;;;;;4954563;28;20035;-68
2022/05/07 12:31:53;;;;;;;3.17;2.47;;;26.60;38.30;;;;;;4952999;28;20607;-68
2022/05/07 12:34:19;;;;;;;4.60;2.30;;;26.80;37.80;;;;;;4955384;28;20066;-66
2022/05/07 12:36:45;;;;;;;4.35;1.70;;;26.80;35.50;;;;;;4955958;28;20026;-67
2022/05/07 12:39:11;;;;;;;6.18;2.10;;;26.50;35.90;;;;;;4953154;28;20035;-68
2022/05/07 12:41:41;;;;;;;4.13;2.75;;;26.20;36.30;;;;;;4954999;28;20081;-66
2022/05/07 12:44:07;;;;;;;4.07;2.03;;;25.90;37.50;;;;;;4947991;28;20046;-67
2022/05/07 12:46:33;;;;;;;6.47;1.92;;;25.60;38.30;;;;;;4949895;28;20046;-63
2022/05/07 12:48:58;;;;;;;4.50;2.17;;;25.50;38.80;;;;;;4958147;28;20172;-68
2022/05/07 12:51:25;;;;;;;2.90;2.03;;;25.50;38.90;;;;;;4940823;28;20664;-69
2022/05/07 12:53:52;;;;;;;3.55;2.25;;;25.50;38.20;;;;;;4949363;28;20031;-69
2022/05/07 12:56:18;;;;;;;6.43;2.72;;;25.60;38.40;;;;;;4951157;28;20043;-68
2022/05/07 12:58:44;;;;;;;4.57;2.38;;;25.70;38.70;;;;;;4948327;28;20138;-69
2022/05/07 13:01:12;;;;;;;11.75;2.97;;;25.70;38.40;;;;;;4947941;28;20027;-65
2022/05/07 13:03:38;;;;;;;5.72;2.65;;;25.70;39.70;;;;;;4947004;28;20150;-67
2022/05/07 13:06:04;;;;;;;5.18;2.83;;;25.70;39.70;;;;;;4952219;28;20042;-67
2022/05/07 13:08:30;;;;;;;3.88;2.20;;;25.70;40.20;;;;;;4954670;28;20439;-66
2022/05/07 13:10:56;;;;;;;5.65;3.17;;;25.60;40.70;;;;;;4952486;28;20814;-66
2022/05/07 13:13:23;;;;;;;4.88;3.63;;;25.70;41.40;;;;;;4954992;28;20069;-68
2022/05/07 13:15:49;;;;;;;3.58;2.92;;;25.50;41.90;;;;;;4940478;28;20069;-67
2022/05/07 13:18:17;;;;;;;4.80;3.03;;;25.30;42.50;;;;;;4955512;28;20047;-67
2022/05/07 13:20:43;;;;;;;4.30;2.55;;;25.20;42.40;;;;;;4951976;28;20027;-67
2022/05/07 13:23:09;;;;;;;4.00;2.45;;;24.90;43.10;;;;;;4943581;28;20043;-74
2022/05/07 13:25:35;;;;;;;4.50;3.03;;;24.90;43.50;;;;;;4958943;28;20018;-76
2022/05/07 13:28:01;;;;;;;4.40;2.90;;;25.10;43.00;;;;;;4940294;28;20870;-75
2022/05/07 13:30:26;;;;;;;5.03;2.83;;;25.20;43.20;;;;;;4959047;28;20023;-75
2022/05/07 13:32:52;;;;;;;6.13;2.92;;;25.40;44.20;;;;;;4957110;28;20081;-75
2022/05/07 13:35:18;;;;;;;5.90;3.05;;;25.50;42.60;;;;;;4960023;28;20125;-75
2022/05/07 13:37:44;;;;;;;5.93;3.00;;;25.50;42.20;;;;;;4958536;28;20049;-75